Time;durP1;ratioP1;P1;durP2;ratioP2;P2;SDS_P1;SDS_P2;PMS_P1;PMS_P2;Temp;Humidity;BMP_temperature;BMP_pressure;BME280_temperature;BME280_humidity;BME280_pressure;Samples;Min_cycle;Max_cycle;Signal;HPM_P1;HPM_P2
2021/04/26 00:01:08;;;;;;;7.95;3.13;;;3.60;99.90;;;;;;4980263;28;20033;-61
2021/04/26 00:03:33;;;;;;;8.65;3.55;;;3.60;99.90;;;;;;4984872;28;20030;-63
2021/04/26 00:05:59;;;;;;;8.35;3.55;;;3.50;99.90;;;;;;4991782;28;20034;-59
2021/04/26 00:08:24;;;;;;;11.35;3.10;;;3.40;99.90;;;;;;4961322;28;20500;-63
2021/04/26 00:10:50;;;;;;;11.00;3.47;;;3.40;99.90;;;;;;4961607;28;20014;-62
2021/04/26 00:13:16;;;;;;;9.25;3.58;;;3.30;99.90;;;;;;4989758;28;20033;-62
2021/04/26 00:15:42;;;;;;;13.10;3.55;;;3.30;99.90;;;;;;4998512;28;20031;-63
2021/04/26 00:18:07;;;;;;;12.35;3.50;;;3.30;99.90;;;;;;4990550;28;20084;-63
2021/04/26 00:20:33;;;;;;;8.60;3.05;;;3.30;99.90;;;;;;4989305;28;20496;-63
2021/04/26 00:23:00;;;;;;;14.95;4.10;;;3.20;99.90;;;;;;4988511;28;20109;-63
2021/04/26 00:25:26;;;;;;;11.43;3.17;;;3.30;99.90;;;;;;4987207;28;20446;-63
2021/04/26 00:27:52;;;;;;;12.48;3.58;;;3.30;99.90;;;;;;4989513;28;20027;-62
2021/04/26 00:30:20;;;;;;;6.00;3.30;;;3.20;99.90;;;;;;4996281;28;20388;-63
2021/04/26 00:32:46;;;;;;;12.38;4.22;;;3.20;99.90;;;;;;5002161;28;20035;-63
2021/04/26 00:35:13;;;;;;;12.23;3.67;;;3.20;99.90;;;;;;4988924;28;20420;-62
2021/04/26 00:37:39;;;;;;;14.27;3.80;;;3.20;99.90;;;;;;4998594;28;20392;-62
2021/04/26 00:40:06;;;;;;;7.85;3.38;;;3.20;99.90;;;;;;4992560;28;20034;-62
2021/04/26 00:42:32;;;;;;;7.15;3.20;;;3.10;99.90;;;;;;4989655;28;20035;-62
2021/04/26 00:44:58;;;;;;;11.20;3.67;;;3.10;99.90;;;;;;4994640;28;20088;-62
2021/04/26 00:47:23;;;;;;;7.53;3.60;;;3.10;99.90;;;;;;4997675;28;20080;-62
2021/04/26 00:49:49;;;;;;;11.98;4.53;;;3.10;99.90;;;;;;4989551;28;20510;-62
2021/04/26 00:52:15;;;;;;;10.07;3.47;;;3.00;99.90;;;;;;4964344;28;20031;-62
2021/04/26 00:54:41;;;;;;;8.95;3.42;;;3.00;99.90;;;;;;4996628;28;20404;-63
2021/04/26 00:57:07;;;;;;;10.30;3.72;;;2.90;99.90;;;;;;4991662;28;20046;-63
2021/04/26 00:59:34;;;;;;;8.85;4.00;;;2.90;99.90;;;;;;4990591;28;20041;-61
2021/04/26 01:02:00;;;;;;;7.82;3.17;;;2.80;99.90;;;;;;4990825;28;20019;-63
2021/04/26 01:04:26;;;;;;;7.00;3.17;;;2.80;99.90;;;;;;4993372;28;20626;-63
2021/04/26 01:06:51;;;;;;;11.32;5.15;;;2.70;99.90;;;;;;4993174;28;20022;-62
2021/04/26 01:09:17;;;;;;;11.80;4.05;;;2.70;99.90;;;;;;4976814;28;20065;-62
2021/04/26 01:12:02;;;;;;;9.55;4.35;;;2.60;99.90;;;;;;5002869;28;20042;-63
2021/04/26 01:14:55;;;;;;;8.68;3.40;;;2.60;99.90;;;;;;4994915;28;20026;-62
2021/04/26 01:17:25;;;;;;;18.15;3.78;;;2.60;99.90;;;;;;5000721;28;20035;-63
2021/04/26 01:20:12;;;;;;;12.15;4.25;;;2.50;99.90;;;;;;4993737;28;20089;-62
2021/04/26 01:23:16;;;;;;;10.93;3.50;;;2.50;99.90;;;;;;4991301;28;20026;-62
2021/04/26 01:25:43;;;;;;;12.43;4.28;;;2.50;99.90;;;;;;4995308;28;20027;-60
2021/04/26 01:28:16;;;;;;;8.85;3.88;;;2.40;99.90;;;;;;5002354;28;20034;-63
2021/04/26 01:30:53;;;;;;;7.68;3.63;;;2.30;99.90;;;;;;5001434;28;20392;-62
2021/04/26 01:33:21;;;;;;;9.75;3.63;;;2.30;99.90;;;;;;4995949;28;20023;-63
2021/04/26 01:35:47;;;;;;;9.32;4.03;;;2.30;99.90;;;;;;4998319;28;20018;-63
2021/04/26 01:38:26;;;;;;;7.22;3.55;;;2.20;99.90;;;;;;4995118;28;20543;-63
2021/04/26 01:40:53;;;;;;;11.23;3.70;;;2.20;99.90;;;;;;4996821;28;20021;-63
2021/04/26 01:43:23;;;;;;;8.90;3.40;;;2.20;99.90;;;;;;4993149;28;20472;-64
2021/04/26 01:45:52;;;;;;;12.55;4.20;;;2.20;99.90;;;;;;5002285;28;20025;-63
2021/04/26 01:48:18;;;;;;;10.60;3.95;;;2.10;99.90;;;;;;4992961;28;20030;-62
2021/04/26 01:50:44;;;;;;;7.00;3.40;;;2.10;99.90;;;;;;4993781;28;20018;-63
2021/04/26 01:53:11;;;;;;;10.47;4.13;;;2.10;99.90;;;;;;5000458;28;20514;-64
2021/04/26 01:55:38;;;;;;;6.63;3.10;;;2.10;99.90;;;;;;4997944;28;20430;-63
2021/04/26 01:58:04;;;;;;;8.50;3.60;;;2.00;99.90;;;;;;4998154;28;20113;-62
2021/04/26 02:00:32;;;;;;;9.03;3.60;;;2.00;99.90;;;;;;5000923;28;20105;-62
2021/04/26 02:02:59;;;;;;;6.60;4.07;;;2.00;99.90;;;;;;4993314;28;20137;-61
2021/04/26 02:05:26;;;;;;;9.83;3.47;;;1.90;99.90;;;;;;4998690;28;20060;-61
2021/04/26 02:07:53;;;;;;;8.03;3.80;;;1.90;99.90;;;;;;4989851;28;20039;-62
2021/04/26 02:10:22;;;;;;;13.40;3.55;;;1.90;99.90;;;;;;4976985;28;20050;-63
2021/04/26 02:12:48;;;;;;;14.27;3.80;;;1.90;99.90;;;;;;4992243;28;20022;-63
2021/04/26 02:15:19;;;;;;;8.47;3.13;;;1.90;99.90;;;;;;4995714;28;20026;-62
2021/04/26 02:17:47;;;;;;;10.93;4.10;;;1.90;99.90;;;;;;4995233;28;20034;-63
2021/04/26 02:20:15;;;;;;;11.00;3.57;;;1.80;99.90;;;;;;4987883;28;20018;-63
2021/04/26 02:22:42;;;;;;;12.95;3.85;;;1.80;99.90;;;;;;4991358;28;20488;-63
2021/04/26 02:25:10;;;;;;;11.40;3.60;;;1.80;99.90;;;;;;5003469;28;20034;-62
2021/04/26 02:27:36;;;;;;;9.87;4.83;;;1.80;99.90;;;;;;5000195;28;20792;-63
2021/04/26 02:30:04;;;;;;;12.17;3.83;;;1.80;99.90;;;;;;4992457;28;20066;-63
2021/04/26 02:32:56;;;;;;;8.87;3.83;;;1.70;99.90;;;;;;5000156;28;20029;-63
2021/04/26 02:35:50;;;;;;;9.10;3.83;;;1.70;99.90;;;;;;4996229;28;20026;-63
2021/04/26 02:38:37;;;;;;;6.90;3.13;;;1.60;99.90;;;;;;4982278;28;20464;-63
2021/04/26 02:41:05;;;;;;;8.70;3.77;;;1.60;99.90;;;;;;5003997;28;20038;-63
2021/04/26 02:43:35;;;;;;;10.37;3.73;;;1.60;99.90;;;;;;4990273;28;20475;-63
2021/04/26 02:46:02;;;;;;;8.80;3.87;;;1.50;99.90;;;;;;5005330;28;20498;-63
2021/04/26 02:48:28;;;;;;;15.17;4.20;;;1.50;99.90;;;;;;4998755;28;20110;-63
2021/04/26 02:50:55;;;;;;;4.97;3.42;;;1.50;99.90;;;;;;4992804;28;20105;-63
2021/04/26 02:53:25;;;;;;;10.10;3.67;;;1.50;99.90;;;;;;4991527;28;20029;-63
2021/04/26 02:55:56;;;;;;;10.93;3.50;;;1.50;99.90;;;;;;5000480;28;20022;-63
2021/04/26 02:58:24;;;;;;;6.57;3.97;;;1.50;99.90;;;;;;4995413;28;20141;-63
2021/04/26 03:00:50;;;;;;;7.60;3.87;;;1.50;99.90;;;;;;5000521;28;20030;-63
2021/04/26 03:03:17;;;;;;;9.80;3.47;;;1.50;99.90;;;;;;5000794;28;20466;-63
2021/04/26 03:05:43;;;;;;;8.60;3.57;;;1.50;99.90;;;;;;5000437;28;20057;-63
2021/04/26 03:08:10;;;;;;;10.13;4.37;;;1.50;99.90;;;;;;4992048;28;20412;-63
2021/04/26 03:10:36;;;;;;;5.97;3.50;;;1.50;99.90;;;;;;4978087;28;20117;-63
2021/04/26 03:13:04;;;;;;;7.27;3.30;;;1.50;99.90;;;;;;4997752;28;20034;-63
2021/04/26 03:15:30;;;;;;;6.67;3.20;;;1.50;99.90;;;;;;5003981;28;20072;-63
2021/04/26 03:17:56;;;;;;;9.13;3.63;;;1.60;99.90;;;;;;4999721;28;20073;-63
2021/04/26 03:20:24;;;;;;;7.63;3.00;;;1.60;99.90;;;;;;5002043;28;20400;-61
2021/04/26 03:22:51;;;;;;;13.37;4.40;;;1.60;99.90;;;;;;4998737;28;20022;-63
2021/04/26 03:25:21;;;;;;;8.17;3.47;;;1.60;99.90;;;;;;4999560;28;20021;-63
2021/04/26 03:27:49;;;;;;;7.37;3.30;;;1.60;99.90;;;;;;4991845;28;20039;-60
2021/04/26 03:30:17;;;;;;;12.07;3.20;;;1.60;99.90;;;;;;4990849;28;20088;-63
2021/04/26 03:32:43;;;;;;;9.10;4.77;;;1.60;99.90;;;;;;5001088;28;20024;-63
2021/04/26 03:35:12;;;;;;;10.00;3.20;;;1.60;99.90;;;;;;4997853;28;20543;-63
2021/04/26 03:37:39;;;;;;;7.67;3.37;;;1.60;99.90;;;;;;5001011;28;20499;-63
2021/04/26 03:40:06;;;;;;;8.47;3.83;;;1.50;99.90;;;;;;4999191;28;20045;-63
2021/04/26 03:42:32;;;;;;;9.93;3.63;;;1.50;99.90;;;;;;4999935;28;20040;-63
2021/04/26 03:44:58;;;;;;;6.50;3.17;;;1.40;99.90;;;;;;5000701;28;20121;-63
2021/04/26 03:47:23;;;;;;;9.43;3.50;;;1.30;99.90;;;;;;5000646;28;20034;-63
2021/04/26 03:49:49;;;;;;;8.73;3.60;;;1.20;99.90;;;;;;4995008;28;20470;-60
2021/04/26 03:52:15;;;;;;;8.77;3.80;;;1.20;99.90;;;;;;4990588;28;20023;-63
2021/04/26 03:54:40;;;;;;;9.87;3.93;;;1.20;99.90;;;;;;4995007;28;20053;-63
2021/04/26 03:57:06;;;;;;;7.33;3.20;;;1.20;99.90;;;;;;4993173;28;20026;-63
2021/04/26 03:59:32;;;;;;;8.10;3.73;;;1.20;99.90;;;;;;4995494;28;20077;-63
2021/04/26 04:01:58;;;;;;;9.63;3.57;;;1.10;99.90;;;;;;4995121;28;20034;-58
2021/04/26 04:04:24;;;;;;;12.13;3.50;;;1.20;99.90;;;;;;4988593;28;20130;-63
2021/04/26 04:06:50;;;;;;;8.53;3.80;;;1.10;99.90;;;;;;4989613;28;20030;-61
2021/04/26 04:09:17;;;;;;;9.90;3.67;;;1.10;99.90;;;;;;4991209;28;20407;-63
2021/04/26 04:11:44;;;;;;;12.73;4.37;;;1.00;99.90;;;;;;4974520;28;20054;-62
2021/04/26 04:14:10;;;;;;;15.37;3.70;;;1.00;99.90;;;;;;4990146;28;20041;-61
2021/04/26 04:16:36;;;;;;;9.73;3.77;;;1.00;99.90;;;;;;4994926;28;20049;-61
2021/04/26 04:19:02;;;;;;;10.10;3.47;;;1.00;99.90;;;;;;5004664;28;20022;-62
2021/04/26 04:21:27;;;;;;;6.73;3.23;;;1.10;99.90;;;;;;4995464;28;20088;-62
2021/04/26 04:23:53;;;;;;;6.40;2.83;;;1.10;99.90;;;;;;4990820;28;20030;-62
2021/04/26 04:26:19;;;;;;;7.70;3.47;;;1.20;99.90;;;;;;5001165;28;20067;-58
2021/04/26 04:28:45;;;;;;;9.73;3.00;;;1.30;99.90;;;;;;5002144;28;20072;-62
2021/04/26 04:31:11;;;;;;;5.53;2.63;;;1.40;99.90;;;;;;4992098;28;20029;-62
2021/04/26 04:33:37;;;;;;;7.80;3.37;;;1.40;99.90;;;;;;4990168;28;20387;-62
2021/04/26 04:36:02;;;;;;;8.40;3.43;;;1.40;99.90;;;;;;4990860;28;20050;-63
2021/04/26 04:38:28;;;;;;;8.73;3.93;;;1.50;99.90;;;;;;4989985;28;20033;-62
2021/04/26 04:40:54;;;;;;;7.67;3.33;;;1.40;99.90;;;;;;4994724;28;20026;-62
2021/04/26 04:43:20;;;;;;;8.23;3.67;;;1.40;99.90;;;;;;5000735;28;20030;-61
2021/04/26 04:45:47;;;;;;;11.00;4.33;;;1.40;99.90;;;;;;4996760;28;20149;-61
2021/04/26 04:48:13;;;;;;;7.73;4.03;;;1.30;99.90;;;;;;4987760;28;20054;-63
2021/04/26 04:50:38;;;;;;;11.10;3.60;;;1.30;99.90;;;;;;4989811;28;20752;-62
2021/04/26 04:53:04;;;;;;;14.10;3.50;;;1.20;99.90;;;;;;5001282;28;20033;-63
2021/04/26 04:55:29;;;;;;;10.30;3.83;;;1.20;99.90;;;;;;4996124;28;20030;-64
2021/04/26 04:57:55;;;;;;;8.77;3.03;;;1.30;99.90;;;;;;4990775;28;20117;-63
2021/04/26 05:00:21;;;;;;;17.30;6.60;;;1.40;99.90;;;;;;4998987;28;20038;-59
2021/04/26 05:02:46;;;;;;;11.80;2.80;;;1.60;99.90;;;;;;4994781;28;20030;-63
2021/04/26 05:05:12;;;;;;;5.07;2.53;;;2.20;99.90;;;;;;4988231;28;20056;-61
2021/04/26 05:07:38;;;;;;;8.38;2.58;;;3.20;99.90;;;;;;4990002;28;20030;-63
2021/04/26 05:10:05;;;;;;;13.48;2.50;;;4.50;99.90;;;;;;5001109;28;20069;-63
2021/04/26 05:12:30;;;;;;;8.95;2.58;;;5.80;99.90;;;;;;4978277;28;20042;-64
2021/04/26 05:14:56;;;;;;;5.53;2.58;;;7.00;98.50;;;;;;4994351;28;20037;-64
2021/04/26 05:17:21;;;;;;;8.98;2.72;;;8.20;95.60;;;;;;4993840;28;20029;-64
2021/04/26 05:19:47;;;;;;;7.70;2.45;;;9.10;92.80;;;;;;4990613;28;20030;-62
2021/04/26 05:22:13;;;;;;;11.82;2.97;;;9.60;91.00;;;;;;4989231;28;20516;-64
2021/04/26 05:24:39;;;;;;;10.07;2.47;;;9.90;89.10;;;;;;4994410;28;20093;-64
2021/04/26 05:27:04;;;;;;;7.53;2.78;;;10.40;86.20;;;;;;4997105;28;20559;-64
2021/04/26 05:29:30;;;;;;;8.13;2.65;;;10.80;83.20;;;;;;4997991;28;20097;-64
2021/04/26 05:31:56;;;;;;;5.22;2.50;;;11.10;80.30;;;;;;4997722;28;20515;-64
2021/04/26 05:34:21;;;;;;;11.82;2.40;;;11.40;77.70;;;;;;4995206;28;20084;-64
2021/04/26 05:36:47;;;;;;;4.10;2.25;;;11.60;75.70;;;;;;4997568;28;20034;-64
2021/04/26 05:39:13;;;;;;;10.15;3.33;;;12.10;73.60;;;;;;4991867;28;20026;-65
2021/04/26 05:41:38;;;;;;;7.60;2.67;;;12.60;72.60;;;;;;4996929;28;20077;-63
2021/04/26 05:44:04;;;;;;;5.78;2.22;;;13.30;68.80;;;;;;4988477;28;20054;-64
2021/04/26 05:46:30;;;;;;;5.15;2.75;;;13.50;65.00;;;;;;4994440;28;20423;-64
2021/04/26 05:48:55;;;;;;;4.85;2.75;;;13.40;63.00;;;;;;4999096;28;20030;-64
2021/04/26 05:51:21;;;;;;;3.97;2.20;;;13.70;62.30;;;;;;5000847;28;20034;-64
2021/04/26 05:53:47;;;;;;;11.35;3.17;;;13.70;60.60;;;;;;4997201;28;20084;-63
2021/04/26 05:56:12;;;;;;;10.20;2.70;;;13.90;60.00;;;;;;5001237;28;20022;-65
2021/04/26 05:58:38;;;;;;;6.05;2.67;;;14.00;60.00;;;;;;4998534;28;20034;-65
2021/04/26 06:01:04;;;;;;;5.57;2.30;;;14.90;58.30;;;;;;4997373;28;20080;-65
2021/04/26 06:03:29;;;;;;;7.13;3.03;;;15.50;55.10;;;;;;5002183;28;20029;-65
2021/04/26 06:05:56;;;;;;;6.18;3.08;;;15.70;54.20;;;;;;4997116;28;20030;-65
2021/04/26 06:08:22;;;;;;;8.82;2.50;;;15.50;54.20;;;;;;5000766;28;20021;-65
2021/04/26 06:10:48;;;;;;;5.30;2.38;;;15.90;53.20;;;;;;4993697;28;20033;-61
2021/04/26 06:13:13;;;;;;;3.90;2.20;;;16.80;50.90;;;;;;4976280;28;20085;-62
2021/04/26 06:15:39;;;;;;;11.27;2.83;;;17.50;49.00;;;;;;4992227;28;20038;-63
2021/04/26 06:18:12;;;;;;;7.32;3.08;;;17.60;48.30;;;;;;4999745;28;20108;-64
2021/04/26 06:20:39;;;;;;;7.88;2.85;;;17.90;45.40;;;;;;4996602;28;20635;-64
2021/04/26 06:23:06;;;;;;;3.47;2.13;;;18.30;45.20;;;;;;4994214;28;20038;-62
2021/04/26 06:25:33;;;;;;;4.90;2.58;;;18.60;43.80;;;;;;4995274;28;20030;-63
2021/04/26 06:27:59;;;;;;;8.57;2.35;;;18.60;44.00;;;;;;4996623;28;20022;-61
2021/04/26 06:30:25;;;;;;;10.02;3.15;;;18.80;44.00;;;;;;5003589;28;20044;-61
2021/04/26 06:32:50;;;;;;;5.80;2.83;;;19.10;42.30;;;;;;4996712;28;20052;-62
2021/04/26 06:35:16;;;;;;;4.65;2.28;;;19.30;42.80;;;;;;4991577;28;20038;-62
2021/04/26 06:37:41;;;;;;;5.32;2.53;;;19.30;40.80;;;;;;4995010;28;20093;-62
2021/04/26 06:40:07;;;;;;;5.72;2.30;;;18.60;42.40;;;;;;4995113;28;20037;-60
2021/04/26 06:42:33;;;;;;;8.23;2.67;;;18.70;41.10;;;;;;4998964;28;20038;-64
2021/04/26 06:44:59;;;;;;;6.40;2.42;;;18.80;42.50;;;;;;4995775;28;20109;-62
2021/04/26 06:47:24;;;;;;;5.55;2.20;;;19.70;41.50;;;;;;5002793;28;20034;-63
2021/04/26 06:49:50;;;;;;;4.18;2.53;;;19.90;40.20;;;;;;4994423;28;20018;-64
2021/04/26 06:52:15;;;;;;;6.90;2.33;;;20.10;40.10;;;;;;4995883;28;20026;-63
2021/04/26 06:54:41;;;;;;;8.55;2.33;;;20.00;39.40;;;;;;5000188;28;20058;-64
2021/04/26 06:57:06;;;;;;;3.20;1.90;;;19.60;40.60;;;;;;4985619;28;20080;-62
2021/04/26 06:59:32;;;;;;;4.65;2.38;;;20.60;38.20;;;;;;4998662;28;20041;-63
2021/04/26 07:01:58;;;;;;;6.53;2.00;;;20.80;38.90;;;;;;4996541;28;20442;-62
2021/04/26 07:04:23;;;;;;;4.25;2.42;;;19.90;38.30;;;;;;4996515;28;20045;-63
2021/04/26 07:06:49;;;;;;;7.88;1.92;;;20.60;37.10;;;;;;4995479;28;20031;-61
2021/04/26 07:09:15;;;;;;;4.38;2.17;;;20.80;36.60;;;;;;4996204;28;20153;-64
2021/04/26 07:11:41;;;;;;;4.78;1.70;;;20.60;37.10;;;;;;4996695;28;20019;-64
2021/04/26 07:14:07;;;;;;;4.50;1.85;;;21.40;34.00;;;;;;4980352;28;20046;-63
2021/04/26 07:16:32;;;;;;;5.68;1.98;;;21.60;34.10;;;;;;4994751;28;20034;-63
2021/04/26 07:18:58;;;;;;;5.47;1.45;;;21.40;34.90;;;;;;4992840;28;20030;-64
2021/04/26 07:21:23;;;;;;;7.32;1.77;;;22.00;34.00;;;;;;5001316;28;20026;-63
2021/04/26 07:23:49;;;;;;;5.80;2.40;;;22.00;33.40;;;;;;4998097;28;20101;-64
2021/04/26 07:26:14;;;;;;;2.65;1.23;;;22.00;33.00;;;;;;4993494;28;20072;-63
2021/04/26 07:28:40;;;;;;;3.55;1.50;;;22.90;30.50;;;;;;5001943;28;20104;-62
2021/04/26 07:31:06;;;;;;;2.75;1.30;;;22.30;31.60;;;;;;5004430;28;20034;-62
2021/04/26 07:33:32;;;;;;;3.45;1.27;;;21.80;30.70;;;;;;4998914;28;20036;-64
2021/04/26 07:35:57;;;;;;;3.15;1.30;;;20.70;30.20;;;;;;4995472;28;20479;-63
2021/04/26 07:38:23;;;;;;;5.35;2.00;;;21.30;30.70;;;;;;4990672;28;20049;-63
2021/04/26 07:40:48;;;;;;;6.00;1.48;;;21.20;31.20;;;;;;5005877;28;20146;-62
2021/04/26 07:43:14;;;;;;;6.13;1.75;;;21.90;30.20;;;;;;4990560;28;20080;-65
2021/04/26 07:45:40;;;;;;;2.08;1.30;;;21.60;30.00;;;;;;4990744;28;20082;-62
2021/04/26 07:48:06;;;;;;;2.10;1.30;;;20.30;30.60;;;;;;4990319;28;20034;-63
2021/04/26 07:50:32;;;;;;;4.30;1.77;;;20.50;33.40;;;;;;4985555;28;20118;-63
2021/04/26 07:52:57;;;;;;;4.47;2.40;;;21.50;31.10;;;;;;5003190;28;20483;-63
2021/04/26 07:55:23;;;;;;;3.08;1.30;;;20.90;31.60;;;;;;4997568;28;20142;-64
2021/04/26 07:57:49;;;;;;;6.35;1.75;;;21.40;31.80;;;;;;4990695;28;20038;-63
2021/04/26 08:00:17;;;;;;;4.20;1.30;;;20.60;31.20;;;;;;4999007;28;20034;-63
2021/04/26 08:02:43;;;;;;;4.30;1.60;;;20.00;32.40;;;;;;4994220;28;20042;-64
2021/04/26 08:05:10;;;;;;;4.20;1.65;;;21.00;31.10;;;;;;5003804;28;20121;-63
2021/04/26 08:07:36;;;;;;;4.25;1.40;;;21.30;29.90;;;;;;4994952;28;20038;-63
2021/04/26 08:10:03;;;;;;;3.40;0.98;;;21.10;30.20;;;;;;4995928;28;20624;-61
2021/04/26 08:12:28;;;;;;;3.78;1.40;;;21.60;30.10;;;;;;4980529;28;20081;-64
2021/04/26 08:14:54;;;;;;;1.80;1.00;;;21.20;28.90;;;;;;5000072;28;20030;-62
2021/04/26 08:17:19;;;;;;;1.92;1.10;;;21.10;29.30;;;;;;5001298;28;20045;-63
2021/04/26 08:19:45;;;;;;;2.28;1.23;;;21.00;30.50;;;;;;4998091;28;20061;-63
2021/04/26 08:22:11;;;;;;;3.92;1.15;;;21.10;28.90;;;;;;4989779;28;20038;-60
2021/04/26 08:24:37;;;;;;;3.90;1.42;;;20.30;28.60;;;;;;4997142;28;20619;-63
2021/04/26 08:27:03;;;;;;;4.85;1.35;;;20.00;29.50;;;;;;4995378;28;20030;-63
2021/04/26 08:29:28;;;;;;;1.48;1.17;;;19.50;29.90;;;;;;4993892;28;20027;-63
2021/04/26 08:31:54;;;;;;;3.05;1.30;;;19.90;29.90;;;;;;4998002;28;20643;-64
2021/04/26 08:34:20;;;;;;;2.60;1.40;;;19.80;30.60;;;;;;4995213;28;20014;-64
2021/04/26 08:36:45;;;;;;;4.45;1.65;;;20.30;29.60;;;;;;4995151;28;20037;-64
2021/04/26 08:39:11;;;;;;;2.35;1.40;;;20.40;29.40;;;;;;4996447;28;20380;-65
2021/04/26 08:41:39;;;;;;;5.15;1.30;;;20.40;30.00;;;;;;4990327;28;20046;-65
2021/04/26 08:44:05;;;;;;;5.32;1.10;;;20.60;29.90;;;;;;4993245;28;20022;-64
2021/04/26 08:46:31;;;;;;;3.78;1.40;;;19.90;29.00;;;;;;5000081;28;20081;-64
2021/04/26 08:48:57;;;;;;;3.63;1.45;;;20.60;31.20;;;;;;4999881;28;20026;-65
2021/04/26 08:51:23;;;;;;;1.17;1.02;;;21.20;29.00;;;;;;4997176;28;20026;-62
2021/04/26 08:53:49;;;;;;;2.88;1.35;;;21.00;29.90;;;;;;4997687;28;20104;-64
2021/04/26 08:56:15;;;;;;;7.03;1.65;;;20.50;29.40;;;;;;4998477;28;20114;-64
2021/04/26 08:58:41;;;;;;;4.50;1.60;;;20.90;30.00;;;;;;4997608;28;20097;-65
2021/04/26 09:01:07;;;;;;;3.80;1.20;;;20.60;29.20;;;;;;4998784;28;20073;-64
2021/04/26 09:03:37;;;;;;;4.47;1.23;;;20.50;30.00;;;;;;4999423;28;20018;-64
2021/04/26 09:06:05;;;;;;;3.63;1.30;;;21.10;28.90;;;;;;5000009;28;20027;-62
2021/04/26 09:08:31;;;;;;;3.70;1.40;;;21.80;29.90;;;;;;4994163;28;20030;-62
2021/04/26 09:11:15;;;;;;;6.88;1.20;;;20.60;30.10;;;;;;4997736;28;20415;-64
2021/04/26 09:13:47;;;;;;;2.47;1.55;;;19.60;30.20;;;;;;4980216;28;20037;-64
2021/04/26 09:16:24;;;;;;;2.47;1.17;;;20.50;30.80;;;;;;4993834;28;20026;-65
2021/04/26 09:18:59;;;;;;;4.10;1.15;;;20.60;28.80;;;;;;4995349;28;20030;-65
2021/04/26 09:21:46;;;;;;;5.50;1.58;;;20.30;29.90;;;;;;4989715;28;20476;-64
2021/04/26 09:24:28;;;;;;;3.35;1.65;;;19.40;29.50;;;;;;4993725;28;20097;-64
2021/04/26 09:27:06;;;;;;;4.10;1.00;;;19.80;29.50;;;;;;4996451;28;20034;-64
2021/04/26 09:29:32;;;;;;;2.95;1.52;;;19.90;30.40;;;;;;4993623;28;20562;-61
2021/04/26 09:32:10;;;;;;;3.28;1.58;;;20.00;31.50;;;;;;4994958;28;20033;-63
2021/04/26 09:34:41;;;;;;;3.88;1.67;;;20.00;31.50;;;;;;4999014;28;20411;-63
2021/04/26 09:37:12;;;;;;;3.38;1.52;;;19.70;29.20;;;;;;4997044;28;20115;-64
2021/04/26 09:40:06;;;;;;;1.63;0.98;;;19.50;30.00;;;;;;4995130;28;20031;-63
2021/04/26 09:42:56;;;;;;;4.53;1.65;;;19.40;30.30;;;;;;4990704;28;20117;-63
2021/04/26 09:45:30;;;;;;;4.93;1.30;;;19.90;31.30;;;;;;5000767;28;20076;-63
2021/04/26 09:48:11;;;;;;;2.78;1.50;;;19.70;30.00;;;;;;4999639;28;20033;-63
2021/04/26 09:50:49;;;;;;;2.53;1.30;;;19.60;30.50;;;;;;5001220;28;20244;-64
2021/04/26 09:53:14;;;;;;;4.45;2.08;;;19.90;31.50;;;;;;4993821;28;20129;-63
2021/04/26 09:55:40;;;;;;;7.70;1.23;;;19.90;30.10;;;;;;4994777;28;20396;-64
2021/04/26 09:58:05;;;;;;;4.00;1.70;;;19.50;29.50;;;;;;4990717;28;20023;-63
2021/04/26 10:00:31;;;;;;;2.78;1.67;;;19.40;30.00;;;;;;4991950;28;20094;-64
2021/04/26 10:02:57;;;;;;;6.20;2.00;;;19.30;30.50;;;;;;4994870;28;20109;-64
2021/04/26 10:05:23;;;;;;;3.17;1.33;;;18.60;31.10;;;;;;5004021;28;20030;-65
2021/04/26 10:07:49;;;;;;;2.22;1.58;;;18.20;32.10;;;;;;4994600;28;20567;-64
2021/04/26 10:10:15;;;;;;;2.80;1.60;;;17.80;31.90;;;;;;5006510;28;20029;-62
2021/04/26 10:12:40;;;;;;;2.13;1.33;;;17.60;31.70;;;;;;4981604;28;20026;-64
2021/04/26 10:15:07;;;;;;;4.68;1.38;;;17.00;32.00;;;;;;5001704;28;20110;-63
2021/04/26 10:17:35;;;;;;;2.80;1.30;;;17.20;33.30;;;;;;4999872;28;20038;-63
2021/04/26 10:20:03;;;;;;;4.53;1.90;;;16.90;34.60;;;;;;5002288;28;20476;-60
2021/04/26 10:22:34;;;;;;;4.00;1.50;;;16.70;33.50;;;;;;4989036;28;20130;-62
2021/04/26 10:25:00;;;;;;;3.35;1.38;;;16.20;34.50;;;;;;4991999;28;20034;-63
2021/04/26 10:27:31;;;;;;;3.45;1.20;;;16.10;33.70;;;;;;4997938;28;20473;-63
2021/04/26 10:30:01;;;;;;;4.45;1.30;;;15.80;34.00;;;;;;5002118;28;20257;-63
2021/04/26 10:32:27;;;;;;;2.28;1.55;;;15.90;34.50;;;;;;4999357;28;20492;-64
2021/04/26 10:34:56;;;;;;;2.75;1.40;;;15.80;34.80;;;;;;4999006;28;20041;-63
2021/04/26 10:37:24;;;;;;;4.38;1.17;;;16.00;33.60;;;;;;4998411;28;20491;-63
2021/04/26 10:39:58;;;;;;;4.13;1.05;;;15.70;35.10;;;;;;4987825;28;20038;-63
2021/04/26 10:42:30;;;;;;;3.38;1.23;;;15.70;33.20;;;;;;4980275;28;20125;-63
2021/04/26 10:44:56;;;;;;;1.95;1.20;;;15.40;34.90;;;;;;4982608;28;20026;-63
2021/04/26 10:47:28;;;;;;;3.30;1.45;;;15.50;35.60;;;;;;4996065;28;20112;-63
2021/04/26 10:50:19;;;;;;;4.70;1.45;;;15.50;35.30;;;;;;4988355;28;20034;-62
2021/04/26 10:52:55;;;;;;;8.50;1.40;;;15.20;36.30;;;;;;4974846;28;20049;-62
2021/04/26 10:55:23;;;;;;;2.95;1.40;;;15.20;35.20;;;;;;4985048;28;20029;-63
2021/04/26 10:58:00;;;;;;;3.65;1.40;;;15.20;34.50;;;;;;4990027;28;20033;-63
2021/04/26 11:00:26;;;;;;;4.68;1.48;;;15.60;35.70;;;;;;4990135;28;20034;-63
2021/04/26 11:02:55;;;;;;;3.90;1.88;;;15.30;36.00;;;;;;4989921;28;20022;-63
2021/04/26 11:05:31;;;;;;;2.50;1.50;;;15.40;35.30;;;;;;4983767;28;20110;-63
2021/04/26 11:10:34;;;;;;;2.03;1.42;;;15.50;35.90;;;;;;4977150;28;20037;-62
2021/04/26 11:13:35;;;;;;;4.32;1.25;;;15.60;36.20;;;;;;4980892;28;20487;-63
2021/04/26 11:16:07;;;;;;;2.53;1.30;;;15.40;38.20;;;;;;4984129;28;20109;-61
2021/04/26 11:18:34;;;;;;;3.55;1.55;;;15.20;35.10;;;;;;4964925;28;20050;-63
2021/04/26 11:21:00;;;;;;;2.25;1.02;;;15.30;37.20;;;;;;4977354;28;20504;-63
2021/04/26 11:23:45;;;;;;;6.10;1.27;;;15.30;35.40;;;;;;4973756;28;20473;-63
2021/04/26 11:26:13;;;;;;;2.40;1.25;;;15.50;36.90;;;;;;4987121;28;20076;-64
2021/04/26 11:29:04;;;;;;;3.75;1.38;;;15.60;34.10;;;;;;4990961;28;20384;-63
2021/04/26 11:31:42;;;;;;;2.47;1.30;;;15.40;36.10;;;;;;4988412;28;20014;-62
2021/04/26 11:34:19;;;;;;;2.47;1.00;;;15.40;34.80;;;;;;4992458;28;20034;-63
2021/04/26 11:37:02;;;;;;;2.30;1.02;;;15.40;36.60;;;;;;4993413;28;20038;-63
2021/04/26 11:39:36;;;;;;;4.40;1.67;;;15.00;36.20;;;;;;4987666;28;20069;-62
2021/04/26 11:42:04;;;;;;;5.50;1.20;;;14.80;35.60;;;;;;4987550;28;20093;-62
2021/04/26 11:44:33;;;;;;;13.52;1.38;;;15.10;37.10;;;;;;4987649;28;20377;-63
2021/04/26 11:47:18;;;;;;;2.95;1.05;;;15.30;37.80;;;;;;4994010;28;20034;-63
2021/04/26 11:49:46;;;;;;;4.47;1.10;;;15.10;35.20;;;;;;4989643;28;20044;-63
2021/04/26 11:52:20;;;;;;;1.70;1.00;;;15.10;36.60;;;;;;4991609;28;20076;-63
2021/04/26 11:54:53;;;;;;;;;;;15.10;36.10;;;;;;4991997;28;20023;-62
2021/04/26 11:57:23;;;;;;;1.95;0.98;;;15.20;36.90;;;;;;4987101;28;19918;-61
2021/04/26 11:59:49;;;;;;;3.05;1.30;;;15.30;37.30;;;;;;4987282;28;20051;-62
2021/04/26 12:02:28;;;;;;;5.97;1.10;;;15.40;36.30;;;;;;4989285;28;20030;-62
2021/04/26 12:04:54;;;;;;;1.98;0.93;;;15.40;37.80;;;;;;4988195;28;20030;-62
2021/04/26 12:07:20;;;;;;;1.90;0.98;;;15.30;36.00;;;;;;4990915;28;20031;-62
2021/04/26 12:09:57;;;;;;;3.95;1.33;;;15.20;35.80;;;;;;4979669;28;20495;-62
2021/04/26 12:12:25;;;;;;;4.35;1.30;;;15.20;34.90;;;;;;4977490;28;20027;-62
2021/04/26 12:14:55;;;;;;;3.35;1.00;;;15.10;37.20;;;;;;4980678;28;20092;-62
2021/04/26 12:17:25;;;;;;;3.10;1.33;;;15.20;36.90;;;;;;4964131;28;20086;-62
2021/04/26 12:19:51;;;;;;;5.35;1.10;;;15.10;35.70;;;;;;4979333;28;20019;-62
2021/04/26 12:22:21;;;;;;;1.20;0.98;;;15.00;35.30;;;;;;4978731;28;20023;-62
2021/04/26 12:24:48;;;;;;;4.07;1.30;;;14.80;35.50;;;;;;4985014;28;20026;-62
2021/04/26 12:27:19;;;;;;;4.80;1.42;;;14.70;36.60;;;;;;4993600;28;20033;-62
2021/04/26 12:29:46;;;;;;;3.92;1.23;;;14.80;36.90;;;;;;4998911;28;20030;-62
2021/04/26 12:32:26;;;;;;;2.47;1.00;;;15.00;35.70;;;;;;4988915;28;20559;-62
2021/04/26 12:34:58;;;;;;;1.65;1.00;;;15.00;36.20;;;;;;4981015;28;20401;-62
2021/04/26 12:37:27;;;;;;;10.07;1.45;;;15.00;36.70;;;;;;4973410;28;20030;-62
2021/04/26 12:40:09;;;;;;;3.05;1.40;;;14.90;35.10;;;;;;4978645;28;20410;-61
2021/04/26 12:42:35;;;;;;;1.70;1.15;;;14.80;37.50;;;;;;4973829;28;20030;-62
2021/04/26 12:45:12;;;;;;;4.05;1.50;;;14.70;37.50;;;;;;4983480;28;20026;-62
2021/04/26 12:48:10;;;;;;;2.60;1.20;;;14.90;37.10;;;;;;4979259;28;20042;-62
2021/04/26 12:50:42;;;;;;;4.35;1.10;;;14.90;35.70;;;;;;4963644;28;20034;-62
2021/04/26 12:53:21;;;;;;;5.47;1.35;;;15.00;36.10;;;;;;4978673;28;20027;-62
2021/04/26 12:55:51;;;;;;;2.28;1.20;;;15.10;36.40;;;;;;4976213;28;20155;-62
2021/04/26 12:58:29;;;;;;;1.40;0.90;;;15.10;36.90;;;;;;4985009;28;20096;-62
2021/04/26 13:01:11;;;;;;;4.00;1.10;;;15.00;36.40;;;;;;4988713;28;20125;-63